Terminal Aerodrome Forecast
Issued by NWS

Home | Current Version | Previous Version | Text Only | Print | Product List | Glossary Off
Versions: 1 2 3 4 5 6 7 8 9 10 11 12 13 14 15

000
FTUS43 KIWX 071400 AAA
TAFSBN
TAF AMD
KSBN 071400Z 0714/0812 22010KT P6SM BKN012 OVC020
     FM071600 24012KT P6SM BKN025
     FM071700 24012KT P6SM SCT025
     FM072000 29007KT P6SM SCT040 BKN200
     FM080000 VRB03KT P6SM BKN040
     FM080900 21005KT 6SM -SHRA OVC035=

USA.gov is the U.S. government's official web portal to all federal, state and local government web resources and services.